sensor_id;sensor_type;location;lat;lon;timestamp;P1;durP1;ratioP1;P2;durP2;ratioP2
73107;SDS011;61559;50.476;15.588;2023-02-24T00:00:45;33.30;;;15.10;;
73107;SDS011;61559;50.476;15.588;2023-02-24T00:03:22;36.20;;;15.90;;
73107;SDS011;61559;50.476;15.588;2023-02-24T00:05:53;29.00;;;13.80;;
73107;SDS011;61559;50.476;15.588;2023-02-24T00:08:26;32.60;;;14.40;;
73107;SDS011;61559;50.476;15.588;2023-02-24T00:10:57;31.30;;;15.20;;
73107;SDS011;61559;50.476;15.588;2023-02-24T00:15:59;30.40;;;14.30;;
73107;SDS011;61559;50.476;15.588;2023-02-24T00:18:32;40.90;;;16.40;;
73107;SDS011;61559;50.476;15.588;2023-02-24T00:21:05;35.30;;;15.30;;
73107;SDS011;61559;50.476;15.588;2023-02-24T00:23:41;34.70;;;15.20;;
73107;SDS011;61559;50.476;15.588;2023-02-24T00:26:14;35.10;;;16.10;;
73107;SDS011;61559;50.476;15.588;2023-02-24T00:28:46;35.80;;;16.10;;
73107;SDS011;61559;50.476;15.588;2023-02-24T00:33:51;37.20;;;16.00;;
73107;SDS011;61559;50.476;15.588;2023-02-24T00:36:24;40.90;;;16.80;;
73107;SDS011;61559;50.476;15.588;2023-02-24T00:38:59;45.80;;;19.20;;
73107;SDS011;61559;50.476;15.588;2023-02-24T00:41:37;50.80;;;18.50;;
73107;SDS011;61559;50.476;15.588;2023-02-24T00:44:10;47.00;;;18.30;;
73107;SDS011;61559;50.476;15.588;2023-02-24T00:46:43;39.10;;;17.90;;
73107;SDS011;61559;50.476;15.588;2023-02-24T00:49:16;39.60;;;18.30;;
73107;SDS011;61559;50.476;15.588;2023-02-24T00:51:47;39.10;;;18.20;;
73107;SDS011;61559;50.476;15.588;2023-02-24T00:54:21;38.70;;;18.30;;
73107;SDS011;61559;50.476;15.588;2023-02-24T00:56:55;43.30;;;18.80;;
73107;SDS011;61559;50.476;15.588;2023-02-24T00:59:26;38.30;;;17.90;;
73107;SDS011;61559;50.476;15.588;2023-02-24T01:04:28;38.70;;;18.20;;
73107;SDS011;61559;50.476;15.588;2023-02-24T01:06:59;41.80;;;17.40;;
73107;SDS011;61559;50.476;15.588;2023-02-24T01:12:00;32.40;;;15.50;;
73107;SDS011;61559;50.476;15.588;2023-02-24T01:15:06;39.00;;;17.40;;
73107;SDS011;61559;50.476;15.588;2023-02-24T01:17:39;34.30;;;16.70;;
73107;SDS011;61559;50.476;15.588;2023-02-24T01:20:11;40.80;;;18.60;;
73107;SDS011;61559;50.476;15.588;2023-02-24T01:22:46;38.70;;;16.60;;
73107;SDS011;61559;50.476;15.588;2023-02-24T01:25:20;40.40;;;16.70;;
73107;SDS011;61559;50.476;15.588;2023-02-24T01:27:52;35.10;;;16.60;;
73107;SDS011;61559;50.476;15.588;2023-02-24T01:30:24;41.40;;;18.00;;
73107;SDS011;61559;50.476;15.588;2023-02-24T01:32:55;42.10;;;18.80;;
73107;SDS011;61559;50.476;15.588;2023-02-24T01:35:27;45.20;;;19.10;;
73107;SDS011;61559;50.476;15.588;2023-02-24T01:38:01;47.30;;;19.30;;
73107;SDS011;61559;50.476;15.588;2023-02-24T01:43:02;42.20;;;18.00;;
73107;SDS011;61559;50.476;15.588;2023-02-24T01:45:35;44.30;;;16.90;;
73107;SDS011;61559;50.476;15.588;2023-02-24T01:48:08;43.50;;;18.40;;
73107;SDS011;61559;50.476;15.588;2023-02-24T01:50:40;81.70;;;25.80;;
73107;SDS011;61559;50.476;15.588;2023-02-24T01:53:13;56.60;;;20.70;;
73107;SDS011;61559;50.476;15.588;2023-02-24T01:55:44;44.60;;;17.80;;
73107;SDS011;61559;50.476;15.588;2023-02-24T01:58:19;57.90;;;20.50;;
73107;SDS011;61559;50.476;15.588;2023-02-24T02:00:53;52.50;;;21.20;;
73107;SDS011;61559;50.476;15.588;2023-02-24T02:03:26;52.70;;;19.20;;
73107;SDS011;61559;50.476;15.588;2023-02-24T02:06:05;39.20;;;16.50;;
73107;SDS011;61559;50.476;15.588;2023-02-24T02:08:39;43.30;;;17.00;;
73107;SDS011;61559;50.476;15.588;2023-02-24T02:11:12;43.20;;;18.70;;
73107;SDS011;61559;50.476;15.588;2023-02-24T02:13:48;44.40;;;17.80;;
73107;SDS011;61559;50.476;15.588;2023-02-24T02:16:26;37.70;;;16.40;;
73107;SDS011;61559;50.476;15.588;2023-02-24T02:19:18;40.40;;;16.80;;
73107;SDS011;61559;50.476;15.588;2023-02-24T02:24:56;34.20;;;14.00;;
73107;SDS011;61559;50.476;15.588;2023-02-24T02:27:45;38.40;;;16.40;;
73107;SDS011;61559;50.476;15.588;2023-02-24T02:30:53;45.00;;;18.30;;
73107;SDS011;61559;50.476;15.588;2023-02-24T02:34:00;35.70;;;15.90;;
73107;SDS011;61559;50.476;15.588;2023-02-24T02:36:40;34.50;;;15.70;;
73107;SDS011;61559;50.476;15.588;2023-02-24T02:39:24;38.30;;;16.80;;
73107;SDS011;61559;50.476;15.588;2023-02-24T02:42:04;38.40;;;16.50;;
73107;SDS011;61559;50.476;15.588;2023-02-24T02:44:46;46.40;;;18.10;;
73107;SDS011;61559;50.476;15.588;2023-02-24T02:47:24;42.10;;;18.00;;
73107;SDS011;61559;50.476;15.588;2023-02-24T02:50:04;41.70;;;18.80;;
73107;SDS011;61559;50.476;15.588;2023-02-24T02:52:48;46.80;;;17.70;;
73107;SDS011;61559;50.476;15.588;2023-02-24T02:55:27;46.50;;;18.30;;
73107;SDS011;61559;50.476;15.588;2023-02-24T02:58:04;60.10;;;21.10;;
73107;SDS011;61559;50.476;15.588;2023-02-24T03:00:40;74.40;;;26.70;;
73107;SDS011;61559;50.476;15.588;2023-02-24T03:03:18;60.50;;;20.50;;
73107;SDS011;61559;50.476;15.588;2023-02-24T03:05:50;46.80;;;19.50;;
73107;SDS011;61559;50.476;15.588;2023-02-24T03:08:26;53.50;;;20.30;;
73107;SDS011;61559;50.476;15.588;2023-02-24T03:11:02;40.10;;;16.60;;
73107;SDS011;61559;50.476;15.588;2023-02-24T03:13:38;40.70;;;18.00;;
73107;SDS011;61559;50.476;15.588;2023-02-24T03:16:13;40.60;;;17.90;;
73107;SDS011;61559;50.476;15.588;2023-02-24T03:18:48;41.20;;;17.80;;
73107;SDS011;61559;50.476;15.588;2023-02-24T03:21:23;45.70;;;18.50;;
73107;SDS011;61559;50.476;15.588;2023-02-24T03:24:01;52.10;;;20.50;;
73107;SDS011;61559;50.476;15.588;2023-02-24T03:26:36;52.10;;;19.60;;
73107;SDS011;61559;50.476;15.588;2023-02-24T03:29:13;52.80;;;20.20;;
73107;SDS011;61559;50.476;15.588;2023-02-24T03:31:51;46.10;;;19.20;;
73107;SDS011;61559;50.476;15.588;2023-02-24T03:34:31;50.70;;;21.00;;
73107;SDS011;61559;50.476;15.588;2023-02-24T03:37:10;46.70;;;20.80;;
73107;SDS011;61559;50.476;15.588;2023-02-24T03:39:42;46.00;;;19.70;;
73107;SDS011;61559;50.476;15.588;2023-02-24T03:42:15;49.00;;;19.20;;
73107;SDS011;61559;50.476;15.588;2023-02-24T03:44:48;48.50;;;19.30;;
73107;SDS011;61559;50.476;15.588;2023-02-24T03:47:19;56.30;;;21.70;;
73107;SDS011;61559;50.476;15.588;2023-02-24T03:49:50;46.90;;;18.40;;
73107;SDS011;61559;50.476;15.588;2023-02-24T03:52:24;48.20;;;19.40;;
73107;SDS011;61559;50.476;15.588;2023-02-24T03:55:14;42.10;;;17.50;;
73107;SDS011;61559;50.476;15.588;2023-02-24T03:57:57;41.40;;;17.90;;
73107;SDS011;61559;50.476;15.588;2023-02-24T04:00:43;41.70;;;17.10;;
73107;SDS011;61559;50.476;15.588;2023-02-24T04:03:24;46.50;;;18.20;;
73107;SDS011;61559;50.476;15.588;2023-02-24T04:06:07;39.40;;;17.70;;
73107;SDS011;61559;50.476;15.588;2023-02-24T04:08:43;40.40;;;17.90;;
73107;SDS011;61559;50.476;15.588;2023-02-24T04:11:19;41.50;;;19.00;;
73107;SDS011;61559;50.476;15.588;2023-02-24T04:13:54;48.20;;;20.10;;
73107;SDS011;61559;50.476;15.588;2023-02-24T04:16:35;59.10;;;21.80;;
73107;SDS011;61559;50.476;15.588;2023-02-24T04:19:12;75.20;;;26.90;;
73107;SDS011;61559;50.476;15.588;2023-02-24T04:21:47;94.90;;;33.70;;
73107;SDS011;61559;50.476;15.588;2023-02-24T04:24:20;66.90;;;25.00;;
73107;SDS011;61559;50.476;15.588;2023-02-24T04:26:56;60.10;;;23.10;;
73107;SDS011;61559;50.476;15.588;2023-02-24T04:29:30;42.90;;;17.80;;
73107;SDS011;61559;50.476;15.588;2023-02-24T04:32:05;41.60;;;16.30;;
73107;SDS011;61559;50.476;15.588;2023-02-24T04:34:39;46.80;;;19.60;;
73107;SDS011;61559;50.476;15.588;2023-02-24T04:37:10;49.20;;;19.90;;
73107;SDS011;61559;50.476;15.588;2023-02-24T04:39:41;49.20;;;21.90;;
73107;SDS011;61559;50.476;15.588;2023-02-24T04:42:13;55.30;;;22.00;;
73107;SDS011;61559;50.476;15.588;2023-02-24T04:44:46;45.30;;;19.80;;
73107;SDS011;61559;50.476;15.588;2023-02-24T04:47:17;47.20;;;20.20;;
73107;SDS011;61559;50.476;15.588;2023-02-24T04:49:49;65.40;;;24.50;;
73107;SDS011;61559;50.476;15.588;2023-02-24T04:52:22;68.50;;;25.00;;
73107;SDS011;61559;50.476;15.588;2023-02-24T04:54:52;66.30;;;24.00;;
73107;SDS011;61559;50.476;15.588;2023-02-24T04:57:25;59.40;;;23.20;;
73107;SDS011;61559;50.476;15.588;2023-02-24T04:59:56;57.10;;;21.40;;
73107;SDS011;61559;50.476;15.588;2023-02-24T05:02:28;60.10;;;23.80;;
73107;SDS011;61559;50.476;15.588;2023-02-24T05:05:00;55.60;;;22.90;;
73107;SDS011;61559;50.476;15.588;2023-02-24T05:07:35;60.90;;;25.70;;
73107;SDS011;61559;50.476;15.588;2023-02-24T05:10:06;54.70;;;22.30;;
73107;SDS011;61559;50.476;15.588;2023-02-24T05:12:38;61.90;;;24.40;;
73107;SDS011;61559;50.476;15.588;2023-02-24T05:15:11;54.50;;;21.90;;
73107;SDS011;61559;50.476;15.588;2023-02-24T05:17:42;61.30;;;23.20;;
73107;SDS011;61559;50.476;15.588;2023-02-24T05:23:00;54.90;;;22.70;;
73107;SDS011;61559;50.476;15.588;2023-02-24T05:25:31;53.90;;;21.70;;
73107;SDS011;61559;50.476;15.588;2023-02-24T05:28:04;61.90;;;23.00;;
73107;SDS011;61559;50.476;15.588;2023-02-24T05:30:36;64.80;;;26.00;;
73107;SDS011;61559;50.476;15.588;2023-02-24T05:33:07;49.80;;;22.10;;
73107;SDS011;61559;50.476;15.588;2023-02-24T05:35:38;69.90;;;24.10;;
73107;SDS011;61559;50.476;15.588;2023-02-24T05:38:09;58.70;;;26.20;;
73107;SDS011;61559;50.476;15.588;2023-02-24T05:40:41;64.30;;;26.00;;
73107;SDS011;61559;50.476;15.588;2023-02-24T05:43:13;52.10;;;21.10;;
73107;SDS011;61559;50.476;15.588;2023-02-24T05:45:45;60.10;;;22.70;;
73107;SDS011;61559;50.476;15.588;2023-02-24T05:50:51;52.70;;;19.10;;
73107;SDS011;61559;50.476;15.588;2023-02-24T05:53:22;63.60;;;23.10;;
73107;SDS011;61559;50.476;15.588;2023-02-24T05:55:53;51.70;;;19.30;;
73107;SDS011;61559;50.476;15.588;2023-02-24T05:58:24;51.60;;;20.30;;
73107;SDS011;61559;50.476;15.588;2023-02-24T06:00:56;53.80;;;20.60;;
73107;SDS011;61559;50.476;15.588;2023-02-24T06:03:32;53.80;;;21.90;;
73107;SDS011;61559;50.476;15.588;2023-02-24T06:06:04;51.90;;;22.00;;
73107;SDS011;61559;50.476;15.588;2023-02-24T06:08:36;53.10;;;21.60;;
73107;SDS011;61559;50.476;15.588;2023-02-24T06:11:15;55.40;;;23.20;;
73107;SDS011;61559;50.476;15.588;2023-02-24T06:13:48;48.80;;;20.20;;
73107;SDS011;61559;50.476;15.588;2023-02-24T06:16:25;51.30;;;20.10;;
73107;SDS011;61559;50.476;15.588;2023-02-24T06:18:56;52.60;;;22.10;;
73107;SDS011;61559;50.476;15.588;2023-02-24T06:21:27;63.70;;;22.90;;
73107;SDS011;61559;50.476;15.588;2023-02-24T06:23:59;48.20;;;20.30;;
73107;SDS011;61559;50.476;15.588;2023-02-24T06:26:30;57.10;;;21.60;;
73107;SDS011;61559;50.476;15.588;2023-02-24T06:29:03;60.70;;;22.70;;
73107;SDS011;61559;50.476;15.588;2023-02-24T06:34:04;55.40;;;20.40;;
73107;SDS011;61559;50.476;15.588;2023-02-24T06:36:37;56.80;;;23.00;;
73107;SDS011;61559;50.476;15.588;2023-02-24T06:39:10;59.50;;;22.50;;
73107;SDS011;61559;50.476;15.588;2023-02-24T06:41:41;62.10;;;25.40;;
73107;SDS011;61559;50.476;15.588;2023-02-24T06:44:13;75.80;;;30.50;;
73107;SDS011;61559;50.476;15.588;2023-02-24T06:46:44;63.00;;;30.30;;
73107;SDS011;61559;50.476;15.588;2023-02-24T06:49:15;106.50;;;38.60;;
73107;SDS011;61559;50.476;15.588;2023-02-24T06:51:46;76.00;;;28.20;;
73107;SDS011;61559;50.476;15.588;2023-02-24T06:54:17;62.00;;;24.40;;
73107;SDS011;61559;50.476;15.588;2023-02-24T06:56:49;61.80;;;26.60;;
73107;SDS011;61559;50.476;15.588;2023-02-24T06:59:20;85.80;;;33.90;;
73107;SDS011;61559;50.476;15.588;2023-02-24T07:01:55;74.30;;;33.20;;
73107;SDS011;61559;50.476;15.588;2023-02-24T07:04:29;61.80;;;23.60;;
73107;SDS011;61559;50.476;15.588;2023-02-24T07:07:10;61.50;;;21.10;;
73107;SDS011;61559;50.476;15.588;2023-02-24T07:09:44;69.30;;;28.30;;
73107;SDS011;61559;50.476;15.588;2023-02-24T07:12:15;61.10;;;25.20;;
73107;SDS011;61559;50.476;15.588;2023-02-24T07:14:48;64.10;;;26.00;;
73107;SDS011;61559;50.476;15.588;2023-02-24T07:17:19;57.60;;;22.10;;
73107;SDS011;61559;50.476;15.588;2023-02-24T07:19:50;63.60;;;23.50;;
73107;SDS011;61559;50.476;15.588;2023-02-24T07:22:21;57.50;;;23.30;;
73107;SDS011;61559;50.476;15.588;2023-02-24T07:27:27;49.90;;;18.70;;
73107;SDS011;61559;50.476;15.588;2023-02-24T07:29:59;52.40;;;19.60;;
73107;SDS011;61559;50.476;15.588;2023-02-24T07:32:33;44.70;;;18.30;;
73107;SDS011;61559;50.476;15.588;2023-02-24T07:35:05;46.10;;;18.50;;
73107;SDS011;61559;50.476;15.588;2023-02-24T07:37:37;54.20;;;23.30;;
73107;SDS011;61559;50.476;15.588;2023-02-24T07:42:44;56.00;;;24.20;;
73107;SDS011;61559;50.476;15.588;2023-02-24T07:45:15;56.40;;;23.70;;
73107;SDS011;61559;50.476;15.588;2023-02-24T07:47:47;65.50;;;28.60;;
73107;SDS011;61559;50.476;15.588;2023-02-24T07:50:18;112.80;;;45.10;;
73107;SDS011;61559;50.476;15.588;2023-02-24T07:52:51;97.70;;;38.30;;
73107;SDS011;61559;50.476;15.588;2023-02-24T07:55:22;92.40;;;37.50;;
73107;SDS011;61559;50.476;15.588;2023-02-24T07:57:58;64.60;;;28.80;;
73107;SDS011;61559;50.476;15.588;2023-02-24T08:00:30;43.20;;;19.00;;
73107;SDS011;61559;50.476;15.588;2023-02-24T08:03:17;42.80;;;17.70;;
73107;SDS011;61559;50.476;15.588;2023-02-24T08:05:50;35.60;;;14.90;;
73107;SDS011;61559;50.476;15.588;2023-02-24T08:08:40;39.70;;;17.50;;
73107;SDS011;61559;50.476;15.588;2023-02-24T08:11:27;58.10;;;26.00;;
73107;SDS011;61559;50.476;15.588;2023-02-24T08:14:03;55.40;;;27.80;;
73107;SDS011;61559;50.476;15.588;2023-02-24T08:16:38;50.40;;;23.30;;
73107;SDS011;61559;50.476;15.588;2023-02-24T08:19:11;45.50;;;20.40;;
73107;SDS011;61559;50.476;15.588;2023-02-24T08:21:48;45.30;;;19.60;;
73107;SDS011;61559;50.476;15.588;2023-02-24T08:24:22;50.10;;;21.10;;
73107;SDS011;61559;50.476;15.588;2023-02-24T08:26:57;51.40;;;22.30;;
73107;SDS011;61559;50.476;15.588;2023-02-24T08:29:32;43.80;;;19.50;;
73107;SDS011;61559;50.476;15.588;2023-02-24T08:32:07;39.70;;;17.20;;
73107;SDS011;61559;50.476;15.588;2023-02-24T08:34:38;43.20;;;16.20;;
73107;SDS011;61559;50.476;15.588;2023-02-24T08:37:11;37.10;;;15.60;;
73107;SDS011;61559;50.476;15.588;2023-02-24T08:39:43;35.50;;;15.80;;
73107;SDS011;61559;50.476;15.588;2023-02-24T08:42:14;45.10;;;17.70;;
73107;SDS011;61559;50.476;15.588;2023-02-24T08:44:45;40.50;;;17.70;;
73107;SDS011;61559;50.476;15.588;2023-02-24T08:47:20;42.20;;;18.20;;
73107;SDS011;61559;50.476;15.588;2023-02-24T08:49:58;38.90;;;17.10;;
73107;SDS011;61559;50.476;15.588;2023-02-24T08:52:30;38.30;;;17.20;;
73107;SDS011;61559;50.476;15.588;2023-02-24T08:55:03;31.60;;;14.30;;
73107;SDS011;61559;50.476;15.588;2023-02-24T08:57:37;34.50;;;16.00;;
73107;SDS011;61559;50.476;15.588;2023-02-24T09:00:20;45.90;;;19.40;;
73107;SDS011;61559;50.476;15.588;2023-02-24T09:03:09;95.20;;;36.50;;
73107;SDS011;61559;50.476;15.588;2023-02-24T09:05:58;72.60;;;30.50;;
73107;SDS011;61559;50.476;15.588;2023-02-24T09:08:33;43.90;;;20.40;;
73107;SDS011;61559;50.476;15.588;2023-02-24T09:11:07;31.00;;;13.80;;
73107;SDS011;61559;50.476;15.588;2023-02-24T09:13:42;37.00;;;17.10;;
73107;SDS011;61559;50.476;15.588;2023-02-24T09:16:21;37.10;;;15.80;;
73107;SDS011;61559;50.476;15.588;2023-02-24T09:18:53;36.50;;;14.90;;
73107;SDS011;61559;50.476;15.588;2023-02-24T09:21:38;51.10;;;20.20;;
73107;SDS011;61559;50.476;15.588;2023-02-24T09:24:26;42.10;;;16.30;;
73107;SDS011;61559;50.476;15.588;2023-02-24T09:26:59;42.90;;;19.50;;
73107;SDS011;61559;50.476;15.588;2023-02-24T09:29:31;31.00;;;14.30;;
73107;SDS011;61559;50.476;15.588;2023-02-24T09:32:03;37.70;;;14.60;;
73107;SDS011;61559;50.476;15.588;2023-02-24T09:34:41;30.00;;;14.20;;
73107;SDS011;61559;50.476;15.588;2023-02-24T09:37:13;36.30;;;15.70;;
73107;SDS011;61559;50.476;15.588;2023-02-24T09:39:53;33.80;;;14.80;;
73107;SDS011;61559;50.476;15.588;2023-02-24T09:42:41;30.20;;;12.30;;
73107;SDS011;61559;50.476;15.588;2023-02-24T09:45:17;30.50;;;13.40;;
73107;SDS011;61559;50.476;15.588;2023-02-24T09:48:01;27.50;;;13.10;;
73107;SDS011;61559;50.476;15.588;2023-02-24T09:50:44;27.00;;;13.60;;
73107;SDS011;61559;50.476;15.588;2023-02-24T09:53:32;24.10;;;10.90;;
73107;SDS011;61559;50.476;15.588;2023-02-24T09:56:12;23.70;;;10.40;;
73107;SDS011;61559;50.476;15.588;2023-02-24T09:58:50;19.00;;;9.60;;
73107;SDS011;61559;50.476;15.588;2023-02-24T10:01:30;24.00;;;10.30;;
73107;SDS011;61559;50.476;15.588;2023-02-24T10:04:17;18.50;;;9.70;;
73107;SDS011;61559;50.476;15.588;2023-02-24T10:06:58;15.80;;;8.10;;
73107;SDS011;61559;50.476;15.588;2023-02-24T10:09:36;20.40;;;9.50;;
73107;SDS011;61559;50.476;15.588;2023-02-24T10:12:13;17.70;;;8.90;;
73107;SDS011;61559;50.476;15.588;2023-02-24T10:14:48;10.30;;;5.60;;
73107;SDS011;61559;50.476;15.588;2023-02-24T10:17:50;8.00;;;3.90;;
73107;SDS011;61559;50.476;15.588;2023-02-24T10:20:25;4.90;;;2.80;;
73107;SDS011;61559;50.476;15.588;2023-02-24T10:23:08;5.30;;;1.80;;
73107;SDS011;61559;50.476;15.588;2023-02-24T10:25:46;4.10;;;1.80;;
73107;SDS011;61559;50.476;15.588;2023-02-24T10:28:24;4.30;;;1.70;;
73107;SDS011;61559;50.476;15.588;2023-02-24T10:31:06;10.50;;;4.10;;
73107;SDS011;61559;50.476;15.588;2023-02-24T10:33:54;8.60;;;3.20;;
73107;SDS011;61559;50.476;15.588;2023-02-24T10:36:33;17.00;;;7.50;;
73107;SDS011;61559;50.476;15.588;2023-02-24T10:39:08;12.20;;;5.70;;
73107;SDS011;61559;50.476;15.588;2023-02-24T10:41:45;8.90;;;3.60;;
73107;SDS011;61559;50.476;15.588;2023-02-24T10:44:25;4.60;;;3.00;;
73107;SDS011;61559;50.476;15.588;2023-02-24T10:47:05;6.10;;;2.80;;
73107;SDS011;61559;50.476;15.588;2023-02-24T10:49:40;4.60;;;2.70;;
73107;SDS011;61559;50.476;15.588;2023-02-24T10:52:25;7.80;;;4.10;;
73107;SDS011;61559;50.476;15.588;2023-02-24T10:55:20;9.00;;;4.80;;
73107;SDS011;61559;50.476;15.588;2023-02-24T10:57:59;6.70;;;3.90;;
73107;SDS011;61559;50.476;15.588;2023-02-24T11:00:38;7.70;;;3.80;;
73107;SDS011;61559;50.476;15.588;2023-02-24T11:03:44;6.50;;;2.30;;
73107;SDS011;61559;50.476;15.588;2023-02-24T11:06:30;9.30;;;3.40;;
73107;SDS011;61559;50.476;15.588;2023-02-24T11:09:20;17.20;;;6.70;;
73107;SDS011;61559;50.476;15.588;2023-02-24T11:12:11;8.00;;;3.90;;
73107;SDS011;61559;50.476;15.588;2023-02-24T11:15:02;6.00;;;2.80;;
73107;SDS011;61559;50.476;15.588;2023-02-24T11:18:00;9.30;;;4.50;;
73107;SDS011;61559;50.476;15.588;2023-02-24T11:20:34;3.80;;;2.50;;
73107;SDS011;61559;50.476;15.588;2023-02-24T11:23:18;11.60;;;5.80;;
73107;SDS011;61559;50.476;15.588;2023-02-24T11:25:52;7.40;;;2.70;;
73107;SDS011;61559;50.476;15.588;2023-02-24T11:28:31;4.70;;;2.10;;
73107;SDS011;61559;50.476;15.588;2023-02-24T11:31:21;9.70;;;4.90;;
73107;SDS011;61559;50.476;15.588;2023-02-24T11:34:06;8.30;;;4.60;;
73107;SDS011;61559;50.476;15.588;2023-02-24T11:36:42;4.10;;;2.50;;
73107;SDS011;61559;50.476;15.588;2023-02-24T11:39:27;7.40;;;4.10;;
73107;SDS011;61559;50.476;15.588;2023-02-24T11:42:11;8.20;;;3.60;;
73107;SDS011;61559;50.476;15.588;2023-02-24T11:44:48;10.50;;;5.30;;
73107;SDS011;61559;50.476;15.588;2023-02-24T11:47:25;11.30;;;5.60;;
73107;SDS011;61559;50.476;15.588;2023-02-24T11:50:06;10.70;;;5.60;;
73107;SDS011;61559;50.476;15.588;2023-02-24T11:52:54;12.10;;;6.60;;
73107;SDS011;61559;50.476;15.588;2023-02-24T11:55:28;7.70;;;4.70;;
73107;SDS011;61559;50.476;15.588;2023-02-24T11:58:04;11.10;;;5.50;;
73107;SDS011;61559;50.476;15.588;2023-02-24T12:00:47;9.50;;;6.40;;
73107;SDS011;61559;50.476;15.588;2023-02-24T12:03:24;10.20;;;6.20;;
73107;SDS011;61559;50.476;15.588;2023-02-24T12:06:04;16.90;;;7.00;;
73107;SDS011;61559;50.476;15.588;2023-02-24T12:08:47;12.30;;;6.10;;
73107;SDS011;61559;50.476;15.588;2023-02-24T12:11:28;12.90;;;6.50;;
73107;SDS011;61559;50.476;15.588;2023-02-24T12:14:12;11.00;;;5.80;;
73107;SDS011;61559;50.476;15.588;2023-02-24T12:16:52;10.10;;;5.40;;
73107;SDS011;61559;50.476;15.588;2023-02-24T12:19:30;12.30;;;5.90;;
73107;SDS011;61559;50.476;15.588;2023-02-24T12:22:06;14.30;;;8.10;;
73107;SDS011;61559;50.476;15.588;2023-02-24T12:24:47;15.30;;;8.80;;
73107;SDS011;61559;50.476;15.588;2023-02-24T12:27:24;17.60;;;10.10;;
73107;SDS011;61559;50.476;15.588;2023-02-24T12:30:10;8.10;;;4.40;;
73107;SDS011;61559;50.476;15.588;2023-02-24T12:33:04;5.70;;;3.20;;
73107;SDS011;61559;50.476;15.588;2023-02-24T12:35:45;6.10;;;2.70;;
73107;SDS011;61559;50.476;15.588;2023-02-24T12:38:29;6.90;;;3.60;;
73107;SDS011;61559;50.476;15.588;2023-02-24T12:41:14;5.10;;;3.00;;
73107;SDS011;61559;50.476;15.588;2023-02-24T12:44:00;11.50;;;5.80;;
73107;SDS011;61559;50.476;15.588;2023-02-24T12:46:38;7.30;;;3.60;;
73107;SDS011;61559;50.476;15.588;2023-02-24T12:49:13;8.40;;;3.90;;
73107;SDS011;61559;50.476;15.588;2023-02-24T12:51:57;4.10;;;2.10;;
73107;SDS011;61559;50.476;15.588;2023-02-24T12:54:40;8.00;;;3.60;;
73107;SDS011;61559;50.476;15.588;2023-02-24T12:57:20;6.30;;;3.50;;
73107;SDS011;61559;50.476;15.588;2023-02-24T12:59:57;3.00;;;1.70;;
73107;SDS011;61559;50.476;15.588;2023-02-24T13:02:39;2.50;;;1.60;;
73107;SDS011;61559;50.476;15.588;2023-02-24T13:05:21;7.40;;;4.50;;
73107;SDS011;61559;50.476;15.588;2023-02-24T13:10:59;18.00;;;9.40;;
73107;SDS011;61559;50.476;15.588;2023-02-24T13:13:41;7.60;;;3.90;;
73107;SDS011;61559;50.476;15.588;2023-02-24T13:19:04;7.40;;;3.20;;
73107;SDS011;61559;50.476;15.588;2023-02-24T13:21:54;4.20;;;2.70;;
73107;SDS011;61559;50.476;15.588;2023-02-24T13:24:29;5.40;;;3.40;;
73107;SDS011;61559;50.476;15.588;2023-02-24T13:27:05;3.70;;;2.00;;
73107;SDS011;61559;50.476;15.588;2023-02-24T13:29:46;5.90;;;3.50;;
73107;SDS011;61559;50.476;15.588;2023-02-24T13:32:30;4.00;;;2.40;;
73107;SDS011;61559;50.476;15.588;2023-02-24T13:35:04;7.50;;;4.10;;
73107;SDS011;61559;50.476;15.588;2023-02-24T13:37:50;2.50;;;1.60;;
73107;SDS011;61559;50.476;15.588;2023-02-24T13:40:23;6.00;;;2.10;;
73107;SDS011;61559;50.476;15.588;2023-02-24T13:42:59;3.10;;;1.60;;
73107;SDS011;61559;50.476;15.588;2023-02-24T13:45:33;2.40;;;1.60;;
73107;SDS011;61559;50.476;15.588;2023-02-24T13:48:16;3.30;;;1.80;;
73107;SDS011;61559;50.476;15.588;2023-02-24T13:51:02;4.00;;;1.70;;
73107;SDS011;61559;50.476;15.588;2023-02-24T13:53:48;4.90;;;2.40;;
73107;SDS011;61559;50.476;15.588;2023-02-24T13:56:33;4.60;;;2.40;;
73107;SDS011;61559;50.476;15.588;2023-02-24T13:59:25;3.90;;;2.20;;
73107;SDS011;61559;50.476;15.588;2023-02-24T14:02:12;4.30;;;1.90;;
73107;SDS011;61559;50.476;15.588;2023-02-24T14:04:46;7.10;;;3.50;;
73107;SDS011;61559;50.476;15.588;2023-02-24T14:07:20;10.90;;;4.80;;
73107;SDS011;61559;50.476;15.588;2023-02-24T14:09:54;2.80;;;2.00;;
73107;SDS011;61559;50.476;15.588;2023-02-24T14:12:28;5.50;;;3.40;;
73107;SDS011;61559;50.476;15.588;2023-02-24T14:15:03;13.40;;;5.80;;
73107;SDS011;61559;50.476;15.588;2023-02-24T14:17:40;6.70;;;2.90;;
73107;SDS011;61559;50.476;15.588;2023-02-24T14:20:16;5.30;;;2.30;;
73107;SDS011;61559;50.476;15.588;2023-02-24T14:22:49;9.30;;;4.80;;
73107;SDS011;61559;50.476;15.588;2023-02-24T14:25:22;9.50;;;4.90;;
73107;SDS011;61559;50.476;15.588;2023-02-24T14:27:54;8.60;;;3.60;;
73107;SDS011;61559;50.476;15.588;2023-02-24T14:30:27;4.70;;;2.90;;
73107;SDS011;61559;50.476;15.588;2023-02-24T14:33:02;4.60;;;3.00;;
73107;SDS011;61559;50.476;15.588;2023-02-24T14:35:36;3.50;;;2.20;;
73107;SDS011;61559;50.476;15.588;2023-02-24T14:40:58;11.90;;;4.50;;
73107;SDS011;61559;50.476;15.588;2023-02-24T14:43:29;11.00;;;4.30;;
73107;SDS011;61559;50.476;15.588;2023-02-24T14:46:02;5.20;;;2.10;;
73107;SDS011;61559;50.476;15.588;2023-02-24T14:48:34;5.00;;;2.10;;
73107;SDS011;61559;50.476;15.588;2023-02-24T14:51:06;5.50;;;3.40;;
73107;SDS011;61559;50.476;15.588;2023-02-24T14:53:42;6.90;;;3.80;;
73107;SDS011;61559;50.476;15.588;2023-02-24T14:56:17;15.00;;;7.50;;
73107;SDS011;61559;50.476;15.588;2023-02-24T14:58:52;5.00;;;2.80;;
73107;SDS011;61559;50.476;15.588;2023-02-24T15:01:29;10.10;;;5.20;;
73107;SDS011;61559;50.476;15.588;2023-02-24T15:04:09;4.70;;;3.10;;
73107;SDS011;61559;50.476;15.588;2023-02-24T15:06:48;7.00;;;4.60;;
73107;SDS011;61559;50.476;15.588;2023-02-24T15:09:20;5.80;;;3.40;;
73107;SDS011;61559;50.476;15.588;2023-02-24T15:11:54;5.90;;;2.90;;
73107;SDS011;61559;50.476;15.588;2023-02-24T15:14:26;6.90;;;3.70;;
73107;SDS011;61559;50.476;15.588;2023-02-24T15:16:59;8.00;;;4.20;;
73107;SDS011;61559;50.476;15.588;2023-02-24T15:19:37;4.90;;;3.40;;
73107;SDS011;61559;50.476;15.588;2023-02-24T15:22:18;23.30;;;10.40;;
73107;SDS011;61559;50.476;15.588;2023-02-24T15:24:55;14.30;;;7.90;;
73107;SDS011;61559;50.476;15.588;2023-02-24T15:27:49;8.80;;;4.50;;
73107;SDS011;61559;50.476;15.588;2023-02-24T15:30:26;7.50;;;4.20;;
73107;SDS011;61559;50.476;15.588;2023-02-24T15:33:03;7.90;;;4.50;;
73107;SDS011;61559;50.476;15.588;2023-02-24T15:35:37;54.50;;;18.40;;
73107;SDS011;61559;50.476;15.588;2023-02-24T15:38:19;23.90;;;12.30;;
73107;SDS011;61559;50.476;15.588;2023-02-24T15:40:52;13.50;;;7.10;;
73107;SDS011;61559;50.476;15.588;2023-02-24T15:43:31;8.50;;;5.30;;
73107;SDS011;61559;50.476;15.588;2023-02-24T15:46:14;6.60;;;4.60;;
73107;SDS011;61559;50.476;15.588;2023-02-24T15:48:51;9.30;;;5.90;;